Historyczne dane pomiarowe

Dodano dane terminowe – wersja testowa.

Dane z okresu 1951-2019

Wersja bazy: 1.34 [2019-03-16, lista zmian], aktualizacja planowana na 2019-04-15

Dane meteo z obszaru Polski uzyskane na podstawie danych udostępnionych przez Instytut Meteorologii i Gospodarki Wodnej – Państwowy Instytut Badawczy.

 

Wybierz Datę:    

       

TemperaturaWilgotnośćWiatrCiśnienieOpadyŚniegCzas trwania zjawisk
 Stacja t tx tn tng RH VA  wxwx mslp ppp RRR   cm mm wxwxwxwxwxwxwx
2019-09-30 13.5 18.0 9.3 7.2 64.3 9.8 5.8 3.8 0.0 0.0- 908.5 5.3 4.4 0.0- 0.0 2.9 4.3--- 2.1--
2019-09-29 12.0 17.9 7.5 5.9 69.4 9.5 5.3 1.4 0.0 0.0- 914.8 0.0 0.0 0.0- 0.0 5.9---- 6.0--
2019-09-28 11.3 17.2 8.3 7.0 82.3 10.9 6.1 1.4 0.0 0.0- 917.6 0.8 0.8 0.0- 0.0 3.1 2.6------
2019-09-27 11.9 17.5 5.8 4.4 82.3 11.3 5.4 1.1 0.0 0.0- 918.0 0.0 0.0 0.0- 0.0 5.4 0.4--- 5.0--
2019-09-26 11.3 15.5 7.9 6.5 84.1 11.2 6.5 1.3 0.0 0.0- 915.2 0.0 0.0 0.0- 0.0 3.8 0.9------
2019-09-25 11.7 15.4 9.5 8.3 91.1 12.5 7.5 0.8 0.0 0.0- 912.7 0.3 0.0 0.3- 0.0 0.3 4.0------
2019-09-24 10.0 17.9 2.9 0.9 85.4 10.4 4.1 0.9 0.0 0.0- 916.3 1.3 0.0 1.3- 0.0 9.2 0.6-- 0.5 11.7--
2019-09-23 9.2 13.5 5.5 5.1 90.3 10.5 6.3 0.6 0.0 0.0- 917.5 0.4 0.4 0.0- 0.0 0.0 1.8-- 2.3 13.0--
2019-09-22 9.4 17.8 2.8 0.9 82.4 9.5 0.1 1.0 0.0 0.0- 920.8 0.0 0.0 0.0- 0.0 9.7---- 13.0--
2019-09-21 8.0 14.8 1.7 0.8 74.5 7.7 2.8 1.3 0.0 0.0- 926.0 0.0 0.0 0.0- 0.0 10.0---- 14.0--
2019-09-20 5.7 9.5 2.6 1.5 77.9 7.0 6.8 1.3 0.0 0.0- 926.9 0.0 0.0 0.0- 0.0 3.1 0.3--- 5.0--
2019-09-19 5.4 9.1 1.9 1.7 80.5 7.1 6.8 1.5 0.0 0.0- 924.6 0.4 0.3 0.1- 0.0 3.6 5.5--- 0.2--
2019-09-18 5.5 10.6 3.7 3.2 76.6 6.9 6.0 1.9 0.0 0.0- 920.4 1.4 0.1 1.3- 0.0 2.0 1.1--- 6.0--
2019-09-17 11.3 14.9 8.6 8.9 79.8 10.6 6.3 2.3 0.0 0.0- 915.4 3.2 0.3 2.9- 0.0 5.3 7.7------
2019-09-16 14.6 20.5 9.4 7.7 71.6 11.6 6.8 1.5 0.0 0.0- 920.0 3.2 0.0 3.2- 0.0 7.4 3.7--- 10.0--
2019-09-15 10.9 19.9 2.5 2.2 66.4 7.9 3.6 1.0 0.0 0.0- 926.2 0.0 0.0 0.0- 0.0 10.6---- 11.0--
2019-09-14 10.7 15.4 8.3 7.8 77.9 10.0 5.1 1.5 0.0 0.0- 932.0 0.0 0.0 0.0- 0.0 7.3 1.9--- 6.1--
2019-09-13 14.1 19.7 7.7 6.0 76.8 12.0 3.6 1.6 0.0 0.0- 930.8 0.9 0.0 0.9- 0.0 8.9---- 11.0--
2019-09-12 13.5 20.5 7.6 6.1 77.6 11.7 2.4 1.3 0.0 0.0- 929.9 0.0 0.0 0.0- 0.0 8.4---- 12.0--
2019-09-11 12.0 19.9 5.2 3.6 80.1 10.9 4.4 1.0 0.0 0.0- 926.2 0.0 0.0 0.0- 0.0 10.2---- 15.0--
2019-09-10 10.6 17.2 4.7 3.7 81.6 10.1 5.5 1.1 0.0 0.0- 921.1 0.0 0.0 0.0- 0.0 9.8--- 0.4 7.0--
2019-09-09 12.7 19.1 8.7 8.7 87.4 12.8 6.8 1.4 0.0 0.0- 915.3 18.1 18.0 0.1- 0.0 1.0 10.5--- 0.7- 3.7
2019-09-08 14.3 19.7 11.4 10.9 81.5 13.0 5.4 1.3 0.0 0.0- 919.4 10.2 0.0 10.2- 0.0 6.6 4.8--- 3.0--
2019-09-07 12.6 17.2 9.3 8.3 89.9 13.1 7.4 0.9 0.0 0.0- 920.3 5.2 0.8 4.4- 0.0 0.7 2.8--- 8.0--
2019-09-06 12.8 16.2 11.3 10.4 82.1 12.0 7.3 1.1 0.0 0.0- 924.1 0.0 0.0 0.0- 0.0 2.0 4.4--- 0.3--
2019-09-05 13.7 20.5 6.2 4.8 75.4 11.4 2.1 1.1 0.0 0.0- 919.1 0.6 0.0 0.6- 0.0 9.9---- 12.0--
2019-09-04 11.3 18.0 5.1 3.7 75.6 9.6 2.9 1.1 0.0 0.0- 922.9 0.0 0.0 0.0- 0.0 9.7---- 13.0--
2019-09-03 9.6 12.8 8.9 9.0 91.1 10.9 6.4 0.6 0.0 0.0- 924.6 8.0 8.0 0.0- 0.0 0.4 11.7--- 4.0--
2019-09-02 15.3 19.1 12.7 12.6 89.5 15.5 6.8 0.9 0.0 0.0- 920.1 16.5 3.4 13.1- 0.0 1.7 9.2--- 6.0- 0.7
2019-09-01 18.5 26.5 11.4 10.0 72.5 14.6 2.5 1.1 0.0 0.0- 918.9 0.0 0.0 0.0- 0.0 7.8---- 8.0- 0.4
2019-08-31 16.8 24.2 10.8 9.7 86.0 16.3 3.0 0.9 0.0 0.0- 923.8 0.2 0.2 0.0- 0.0 7.2 1.2--- 13.0--
2019-08-30 17.0 25.0 13.3 11.9 86.0 16.3 4.3 1.1 0.0 0.0- 925.9 42.4 42.4 0.0- 0.0 5.6 3.9--- 10.0- 3.7
2019-08-29 18.2 26.5 14.5 13.3 80.6 16.6 3.0 1.3 0.0 0.0- 923.9 2.2 2.2 0.0- 0.0 5.3 1.4--- 11.0- 2.9
2019-08-28 19.2 26.9 13.1 11.9 75.4 16.3 2.5 1.3 0.0 0.0- 924.3 0.0 0.0 0.0- 0.0 8.6 0.2--- 9.0- 3.0
2019-08-27 18.9 26.4 13.3 12.2 78.3 16.6 4.4 1.1 0.0 0.0- 924.9 0.0 0.0 0.0- 0.0 8.4---- 11.0--
2019-08-26 18.2 26.9 12.2 10.5 80.6 16.2 3.9 0.9 0.0 0.0- 925.5 0.6 0.6 0.0- 0.0 6.9 0.6--- 8.0- 1.5
2019-08-25 17.7 25.1 12.5 11.1 84.4 16.8 5.3 0.8 0.0 0.0- 925.8 0.0 0.0 0.0- 0.0 7.3 0.2--- 12.0- 2.1
2019-08-24 17.9 24.3 11.6 11.2 83.3 16.7 4.9 0.9 0.0 0.0- 927.0 0.0 0.0 0.0- 0.0 7.9---- 14.0- 0.7
2019-08-23 15.9 22.9 10.7 10.5 89.9 16.2 6.9 1.1 0.0 0.0- 928.4 1.3 1.3 0.0- 0.0 6.0 2.2-- 2.8-- 2.0
2019-08-22 13.1 16.9 10.4 10.0 89.6 13.5 7.4 1.5 0.0 0.0- 929.0 6.8 6.8 0.0- 0.0 4.9 6.0-- 1.1-- 2.6
2019-08-21 15.9 23.4 12.6 12.6 86.3 15.4 6.8 1.4 0.0 0.0- 926.7 2.9 2.5 0.4- 0.0 1.2 10.9--- 5.0--
2019-08-20 18.7 24.7 13.2 12.5 85.9 18.5 6.3 1.3 0.0 0.0- 923.8 2.1 2.1 0.0- 0.0 6.5 0.4--- 10.0--
2019-08-19 20.0 27.7 11.6 9.9 68.3 15.3 2.4 1.4 0.0 0.0- 920.8 0.0 0.0 0.0- 0.0 10.1---- 13.0--
2019-08-18 17.7 25.0 11.2 10.9 71.1 14.1 4.6 1.4 0.0 0.0- 918.2 0.0 0.0 0.0- 0.0 6.6---- 12.0--
2019-08-17 14.1 20.1 7.5 5.9 79.8 12.6 3.4 1.1 0.0 0.0- 919.6 0.0 0.0 0.0- 0.0 7.4---- 11.0--
2019-08-16 13.0 17.8 7.2 5.9 79.1 11.6 5.4 0.9 0.0 0.0- 919.2 0.2 0.2 0.0- 0.0 2.2 0.5--- 9.0- 0.8
2019-08-15 12.0 18.6 5.6 4.1 72.0 9.5 1.9 1.1 0.0 0.0- 919.4 0.0 0.0 0.0- 0.0 10.4---- 15.0--
2019-08-14 11.0 15.5 9.5 8.9 90.0 11.9 6.1 1.1 0.0 0.0- 919.2 11.0 11.0 0.0- 0.0 1.5 12.7--- 4.0--
2019-08-13 15.6 24.3 14.7 14.8 94.5 16.7 7.1 1.4 0.0 0.0- 918.8 26.3 5.7 20.6- 0.0 0.0 10.0----- 1.0
2019-08-12 21.8 28.5 14.0 13.2 71.8 18.1 3.8 1.6 0.0 0.0- 918.8 19.8 0.0 19.8- 0.0 10.1---- 7.0--
2019-08-11 18.5 23.1 15.5 14.7 81.1 16.9 4.6 1.3 0.0 0.0- 922.1 0.0 0.0 0.0- 0.0 7.8 1.8--- 4.0--
2019-08-10 20.0 27.7 11.8 10.5 71.4 16.4 5.3 1.4 0.0 0.0- 919.5 44.4 0.0 44.4- 0.0 9.3 4.0--- 7.0- 1.8
2019-08-09 18.0 24.2 11.2 10.3 65.9 13.1 3.3 1.6 0.0 0.0- 918.9 0.0 0.0 0.0- 0.0 11.5---- 7.0--
2019-08-08 17.1 21.7 14.8 14.4 77.1 14.8 7.0 1.6 0.0 0.0- 915.9 0.0 0.0 0.0- 0.0 6.2 1.8----- 0.4
2019-08-07 19.3 25.7 13.2 12.4 72.9 15.9 6.9 1.3 0.0 0.0- 914.6 9.5 0.1 9.4- 0.0 8.0 1.8--- 7.0- 1.4
2019-08-06 18.2 24.3 11.4 10.7 74.4 15.0 7.3 1.8 0.0 0.0- 917.1 0.0 0.0 0.0- 0.0 12.4 2.7--- 4.0--
2019-08-05 15.2 22.1 9.8 8.8 73.8 12.3 4.4 1.5 0.0 0.0- 918.0 9.1 4.0 5.1- 0.0 7.6 1.9--- 7.0--
2019-08-04 13.6 19.1 11.0 10.8 78.5 12.1 6.3 1.3 0.0 0.0- 918.0 2.0 2.0 0.0- 0.0 5.3 1.4------
2019-08-03 13.7 18.0 11.7 10.4 85.0 13.2 6.8 1.3 0.0 0.0- 915.0 8.2 8.2 0.0- 0.0 2.6 3.0--- 2.1--
2019-08-02 16.1 21.3 10.4 9.1 71.8 12.7 4.8 1.3 0.0 0.0- 917.0 0.2 0.0 0.2- 0.0 7.6---- 11.0--
91.0 ms

 

Źródłem pochodzenia danych jest Instytut Meteorologii i Gospodarki Wodnej – Państwowy Instytut Badawczy. Dane Instytutu Meteorologii i Gospodarki Wodnej – Państwowego Instytutu Badawczego zostały przetworzone.

Dane źródłowe można odnaleźć na stronie https://dane.imgw.pl